createdAt,value
2023-02-28T00:00:38.788Z,99656.06
2023-02-28T00:01:40.698Z,99662.03
2023-02-28T00:02:44.697Z,99662.91
2023-02-28T00:03:46.554Z,99661.22
2023-02-28T00:04:53.870Z,99662.06
2023-02-28T00:05:55.721Z,99666.38
2023-02-28T00:06:58.554Z,99667.19
2023-02-28T00:08:00.350Z,99663.84
2023-02-28T00:09:03.346Z,99661.28
2023-02-28T00:10:07.401Z,99664.75
2023-02-28T00:11:12.833Z,99666.50
2023-02-28T00:12:33.683Z,99656.31
2023-02-28T00:13:38.601Z,99664.03
2023-02-28T00:14:41.745Z,99660.69
2023-02-28T00:15:46.298Z,99664.97
2023-02-28T00:16:48.182Z,99663.31
2023-02-28T00:17:51.165Z,99659.91
2023-02-28T00:18:53.020Z,99665.06
2023-02-28T00:19:55.895Z,99668.47
2023-02-28T00:20:57.840Z,99669.34
2023-02-28T00:22:00.635Z,99667.66
2023-02-28T00:23:02.932Z,99669.44
2023-02-28T00:24:06.096Z,99667.75
2023-02-28T00:25:09.003Z,99659.31
2023-02-28T00:26:12.188Z,99665.31
2023-02-28T00:27:16.069Z,99661.94
2023-02-28T00:28:18.981Z,99665.44
2023-02-28T00:29:21.305Z,99659.53
2023-02-28T00:30:26.014Z,99664.00
2023-02-28T00:31:28.189Z,99661.59
2023-02-28T00:32:31.760Z,99671.97
2023-02-28T00:33:34.149Z,99664.41
2023-02-28T00:34:38.745Z,99661.00
2023-02-28T00:35:40.714Z,99665.41
2023-02-28T00:36:49.865Z,99658.69
2023-02-28T00:37:51.726Z,99658.81
2023-02-28T00:38:54.695Z,99657.25
2023-02-28T00:39:56.638Z,99664.16
2023-02-28T00:41:05.474Z,99666.84
2023-02-28T00:42:08.010Z,99663.53
2023-02-28T00:43:10.974Z,99669.63
2023-02-28T00:44:13.098Z,99662.88
2023-02-28T00:45:16.400Z,99668.09
2023-02-28T00:46:19.730Z,99666.47
2023-02-28T00:47:22.575Z,99669.97
2023-02-28T00:48:24.639Z,99664.13
2023-02-28T00:49:27.920Z,99663.38
2023-02-28T00:50:29.865Z,99663.47
2023-02-28T00:51:33.714Z,99662.72
2023-02-28T00:52:35.573Z,99667.91
2023-02-28T00:53:38.356Z,99669.69
2023-02-28T00:54:40.526Z,99671.50
2023-02-28T00:55:44.170Z,99671.56
2023-02-28T00:56:47.098Z,99665.66
2023-02-28T00:57:49.963Z,99671.69
2023-02-28T00:58:51.728Z,99671.75
2023-02-28T00:59:56.169Z,99670.16
2023-02-28T01:00:58.440Z,99671.03
2023-02-28T01:02:02.684Z,99660.00
2023-02-28T01:03:04.508Z,99670.31
2023-02-28T01:04:07.560Z,99662.69
2023-02-28T01:05:11.357Z,99671.28
2023-02-28T01:06:14.206Z,99673.03
2023-02-28T01:07:16.124Z,99670.50
2023-02-28T01:08:18.887Z,99666.28
2023-02-28T01:09:20.669Z,99668.88
2023-02-28T01:10:23.543Z,99668.06
2023-02-28T01:11:25.395Z,99674.06
2023-02-28T01:12:30.982Z,99672.44
2023-02-28T01:13:32.999Z,99674.22
2023-02-28T01:14:36.684Z,99667.50
2023-02-28T01:15:47.639Z,99675.31
2023-02-28T01:16:50.532Z,99668.53
2023-02-28T01:17:53.744Z,99673.72
2023-02-28T01:18:58.901Z,99677.19
2023-02-28T01:20:00.794Z,99680.72
2023-02-28T01:21:06.361Z,99667.13
2023-02-28T01:22:08.142Z,99671.41
2023-02-28T01:23:11.517Z,99668.00
2023-02-28T01:24:15.391Z,99668.00
2023-02-28T01:25:17.274Z,99666.31
2023-02-28T01:26:22.409Z,99668.00
2023-02-28T01:27:24.381Z,99669.72
2023-02-28T01:28:30.732Z,99668.03
2023-02-28T01:29:32.582Z,99661.22
2023-02-28T01:30:35.351Z,99668.09
2023-02-28T01:31:37.667Z,99668.13
2023-02-28T01:32:40.690Z,99665.56
2023-02-28T01:33:43.854Z,99670.75
2023-02-28T01:34:46.595Z,99669.13
2023-02-28T01:35:49.071Z,99662.38
2023-02-28T01:36:51.909Z,99663.28
2023-02-28T01:37:54.562Z,99660.81
2023-02-28T01:38:57.933Z,99666.84
2023-02-28T01:39:59.777Z,99663.44
2023-02-28T01:41:02.826Z,99665.22
2023-02-28T01:42:04.952Z,99661.91
2023-02-28T01:43:22.782Z,99667.16
2023-02-28T01:45:02.840Z,99663.06
2023-02-28T01:46:04.833Z,99660.56
2023-02-28T01:47:07.609Z,99663.16
2023-02-28T01:48:10.407Z,99662.31
2023-02-28T01:49:16.999Z,99671.72
2023-02-28T01:50:20.900Z,99662.31
2023-02-28T01:51:25.160Z,99666.63
2023-02-28T01:52:27.966Z,99658.13
2023-02-28T01:53:34.389Z,99664.13
2023-02-28T01:54:36.311Z,99662.44
2023-02-28T01:55:40.087Z,99662.47
2023-02-28T01:56:44.746Z,99658.19
2023-02-28T01:57:50.313Z,99659.06
2023-02-28T01:58:53.528Z,99662.47
2023-02-28T01:59:59.484Z,99660.75
2023-02-28T02:01:03.860Z,99658.22
2023-02-28T02:02:06.923Z,99658.22
2023-02-28T02:03:10.622Z,99661.63
2023-02-28T02:04:14.830Z,99661.66
2023-02-28T02:05:19.644Z,99660.81
2023-02-28T02:06:22.498Z,99659.97
2023-02-28T02:07:25.113Z,99654.88
2023-02-28T02:08:30.572Z,99656.59
2023-02-28T02:09:32.383Z,99654.88
2023-02-28T02:10:37.786Z,99654.03
2023-02-28T02:11:43.645Z,99650.59
2023-02-28T02:13:04.442Z,99654.81
2023-02-28T02:14:33.406Z,99656.59
2023-02-28T02:15:37.787Z,99654.94
2023-02-28T02:16:52.751Z,99654.09
2023-02-28T02:17:58.127Z,99647.34
2023-02-28T02:19:04.561Z,99654.16
2023-02-28T02:20:36.041Z,99647.41
2023-02-28T02:22:04.746Z,99655.22
2023-02-28T02:23:41.759Z,99656.22
2023-02-28T02:25:00.122Z,99646.06
2023-02-28T02:26:17.351Z,99654.59
2023-02-28T02:27:41.513Z,99648.72
2023-02-28T02:29:05.958Z,99659.81
2023-02-28T02:30:45.584Z,99647.94
2023-02-28T02:32:11.044Z,99651.41
2023-02-28T02:33:38.287Z,99641.25
2023-02-28T02:34:58.704Z,99652.38
2023-02-28T02:36:05.835Z,99655.84
2023-02-28T02:37:16.396Z,99649.03
2023-02-28T02:38:27.147Z,99649.91
2023-02-28T02:39:32.345Z,99653.34
2023-02-28T02:40:40.176Z,99646.56
2023-02-28T02:41:47.238Z,99655.09
2023-02-28T02:42:53.558Z,99648.28
2023-02-28T02:43:58.076Z,99648.31
2023-02-28T02:45:04.412Z,99644.88
2023-02-28T02:46:10.546Z,99651.72
2023-02-28T02:47:16.019Z,99648.31
2023-02-28T02:48:20.019Z,99647.47
2023-02-28T02:49:26.423Z,99644.09
2023-02-28T02:50:33.060Z,99648.38
2023-02-28T02:51:37.534Z,99654.31
2023-02-28T02:52:42.088Z,99649.19
2023-02-28T02:53:51.363Z,99649.19
2023-02-28T02:54:56.608Z,99643.25
2023-02-28T02:56:00.146Z,99642.38
2023-02-28T02:57:05.110Z,99644.06
2023-02-28T02:58:10.825Z,99641.47
2023-02-28T02:59:14.442Z,99640.59
2023-02-28T03:00:20.561Z,99646.56
2023-02-28T03:01:29.261Z,99645.69
2023-02-28T03:02:35.156Z,99650.75
2023-02-28T03:03:37.208Z,99642.22
2023-02-28T03:04:45.036Z,99637.09
2023-02-28T03:05:50.950Z,99643.00
2023-02-28T03:06:55.653Z,99646.38
2023-02-28T03:07:58.436Z,99642.94
2023-02-28T03:09:01.413Z,99646.31
2023-02-28T03:10:05.713Z,99646.28
2023-02-28T03:11:13.228Z,99638.63
2023-02-28T03:12:17.863Z,99647.09
2023-02-28T03:13:44.826Z,99650.47
2023-02-28T03:14:57.446Z,99642.81
2023-02-28T03:16:20.495Z,99644.50
2023-02-28T03:17:35.315Z,99651.31
2023-02-28T03:18:43.739Z,99646.25
2023-02-28T03:19:51.979Z,99646.25
2023-02-28T03:21:02.181Z,99644.56
2023-02-28T03:22:26.181Z,99648.84
2023-02-28T03:23:33.630Z,99648.03
2023-02-28T03:24:42.643Z,99653.94
2023-02-28T03:25:55.574Z,99648.84
2023-02-28T03:27:02.504Z,99648.03
2023-02-28T03:28:10.246Z,99647.22
2023-02-28T03:29:18.368Z,99648.94
2023-02-28T03:30:24.229Z,99656.63
2023-02-28T03:31:30.701Z,99660.84
2023-02-28T03:32:36.586Z,99653.19
2023-02-28T03:33:42.007Z,99652.31
2023-02-28T03:34:49.627Z,99658.31
2023-02-28T03:35:54.985Z,99659.19
2023-02-28T03:37:03.434Z,99653.19
2023-02-28T03:38:10.488Z,99669.38
2023-02-28T03:39:16.698Z,99653.16
2023-02-28T03:40:21.784Z,99658.25
2023-02-28T03:41:27.270Z,99660.75
2023-02-28T03:42:31.017Z,99658.22
2023-02-28T03:43:37.042Z,99662.44
2023-02-28T03:44:41.552Z,99677.78
2023-02-28T03:45:45.832Z,99676.06
2023-02-28T03:46:52.630Z,99667.56
2023-02-28T03:47:57.428Z,99671.81
2023-02-28T03:49:04.223Z,99665.00
2023-02-28T03:50:09.971Z,99667.59
2023-02-28T03:51:14.800Z,99665.00
2023-02-28T03:52:20.771Z,99662.44
2023-02-28T03:53:26.608Z,99670.94
2023-02-28T03:54:32.223Z,99670.06
2023-02-28T03:55:36.562Z,99670.06
2023-02-28T03:56:40.749Z,99670.06
2023-02-28T03:57:52.176Z,99665.81
2023-02-28T03:58:59.348Z,99670.06
2023-02-28T04:00:05.377Z,99668.38
2023-02-28T04:01:21.809Z,99671.78
2023-02-28T04:02:23.694Z,99672.59
2023-02-28T04:03:26.545Z,99667.50
2023-02-28T04:04:28.416Z,99670.06
2023-02-28T04:05:31.684Z,99660.72
2023-02-28T04:06:34.431Z,99665.81
2023-02-28T04:07:39.233Z,99666.72
2023-02-28T04:08:41.198Z,99665.88
2023-02-28T04:09:44.351Z,99675.28
2023-02-28T04:10:50.566Z,99668.50
2023-02-28T04:11:54.618Z,99666.84
2023-02-28T04:12:56.821Z,99669.41
2023-02-28T04:13:59.609Z,99666.94
2023-02-28T04:15:02.343Z,99669.50
2023-02-28T04:16:34.514Z,99674.72
2023-02-28T04:17:38.435Z,99674.78
2023-02-28T04:18:40.386Z,99671.38
2023-02-28T04:19:43.150Z,99673.13
2023-02-28T04:20:44.975Z,99675.72
2023-02-28T04:21:49.452Z,99673.22
2023-02-28T04:22:52.594Z,99680.91
2023-02-28T04:24:16.126Z,99683.50
2023-02-28T04:25:17.992Z,99686.94
2023-02-28T04:26:20.732Z,99681.00
2023-02-28T04:27:22.582Z,99684.44
2023-02-28T04:28:25.656Z,99685.28
2023-02-28T04:29:28.938Z,99685.31
2023-02-28T04:30:33.461Z,99681.09
2023-02-28T04:31:36.328Z,99692.19
2023-02-28T04:32:38.171Z,99695.63
2023-02-28T04:33:41.327Z,99699.94
2023-02-28T04:34:43.575Z,99694.03
2023-02-28T04:35:46.331Z,99699.16
2023-02-28T04:36:59.626Z,99699.19
2023-02-28T04:38:10.641Z,99699.25
2023-02-28T04:39:12.524Z,99702.72
2023-02-28T04:40:15.495Z,99698.53
2023-02-28T04:41:17.714Z,99701.97
2023-02-28T04:42:20.558Z,99702.03
2023-02-28T04:43:22.357Z,99708.88
2023-02-28T04:44:43.792Z,99697.00
2023-02-28T04:45:45.694Z,99702.13
2023-02-28T04:46:50.546Z,99703.88
2023-02-28T04:47:52.308Z,99707.31
2023-02-28T04:48:55.360Z,99703.09
2023-02-28T04:49:57.240Z,99708.19
2023-02-28T04:51:02.499Z,99707.38
2023-02-28T04:52:05.556Z,99701.47
2023-02-28T04:53:08.731Z,99710.81
2023-02-28T04:54:11.518Z,99709.16
2023-02-28T04:55:13.544Z,99703.22
2023-02-28T04:56:18.058Z,99711.75
2023-02-28T04:57:19.884Z,99711.75
2023-02-28T04:58:23.973Z,99705.84
2023-02-28T04:59:25.781Z,99706.69
2023-02-28T05:00:28.621Z,99711.81
2023-02-28T05:01:33.789Z,99704.19
2023-02-28T05:02:36.045Z,99709.28
2023-02-28T05:03:38.814Z,99698.28
2023-02-28T05:04:40.903Z,99709.31
2023-02-28T05:05:44.206Z,99711.94
2023-02-28T05:06:46.117Z,99708.50
2023-02-28T05:07:49.255Z,99711.91
2023-02-28T05:08:52.807Z,99707.69
2023-02-28T05:09:55.544Z,99706.88
2023-02-28T05:11:19.162Z,99707.75
2023-02-28T05:12:22.432Z,99712.00
2023-02-28T05:13:24.228Z,99708.63
2023-02-28T05:14:26.954Z,99708.63
2023-02-28T05:15:28.876Z,99709.50
2023-02-28T05:16:32.530Z,99704.41
2023-02-28T05:17:34.384Z,99712.03
2023-02-28T05:18:37.399Z,99712.91
2023-02-28T05:19:40.130Z,99718.84
2023-02-28T05:20:41.943Z,99711.22
2023-02-28T05:21:51.869Z,99712.09
2023-02-28T05:22:53.780Z,99709.56
2023-02-28T05:23:58.826Z,99715.53
2023-02-28T05:25:00.672Z,99715.53
2023-02-28T05:26:03.439Z,99724.00
2023-02-28T05:27:05.360Z,99718.09
2023-02-28T05:28:08.713Z,99721.50
2023-02-28T05:29:11.091Z,99724.03
2023-02-28T05:30:14.315Z,99724.88
2023-02-28T05:31:16.607Z,99720.69
2023-02-28T05:32:19.429Z,99724.88
2023-02-28T05:33:21.312Z,99727.44
2023-02-28T05:34:24.338Z,99722.34
2023-02-28T05:35:26.447Z,99730.00
2023-02-28T05:36:29.350Z,99726.63
2023-02-28T05:37:31.536Z,99732.56
2023-02-28T05:38:34.270Z,99731.72
2023-02-28T05:39:37.958Z,99734.28
2023-02-28T05:40:41.344Z,99730.03
2023-02-28T05:41:43.904Z,99735.09
2023-02-28T05:42:46.756Z,99739.34
2023-02-28T05:43:49.695Z,99744.44
2023-02-28T05:44:52.859Z,99746.16
2023-02-28T05:45:54.706Z,99739.34
2023-02-28T05:46:57.521Z,99742.75
2023-02-28T05:47:59.347Z,99738.50
2023-02-28T05:49:02.181Z,99742.75
2023-02-28T05:50:04.996Z,99740.19
2023-02-28T05:51:08.380Z,99736.78
2023-02-28T05:52:10.252Z,99741.88
2023-02-28T05:53:13.089Z,99747.81
2023-02-28T05:54:14.906Z,99755.44
2023-02-28T05:55:19.324Z,99751.13
2023-02-28T05:56:22.272Z,99756.19
2023-02-28T05:57:24.983Z,99750.19
2023-02-28T05:58:31.478Z,99749.28
2023-02-28T05:59:34.326Z,99748.41
2023-02-28T06:00:36.197Z,99756.00
2023-02-28T06:01:42.166Z,99758.47
2023-02-28T06:02:44.045Z,99750.72
2023-02-28T06:03:46.827Z,99755.69
2023-02-28T06:04:48.639Z,99754.72
2023-02-28T06:05:52.331Z,99757.13
2023-02-28T06:06:54.231Z,99759.44
2023-02-28T06:07:56.987Z,99751.56
2023-02-28T06:08:59.274Z,99752.97
2023-02-28T06:10:02.042Z,99754.47
2023-02-28T06:11:05.775Z,99751.63
2023-02-28T06:12:10.777Z,99749.63
2023-02-28T06:13:13.571Z,99748.47
2023-02-28T06:14:17.349Z,99755.00
2023-02-28T06:15:19.273Z,99748.84
2023-02-28T06:16:22.029Z,99753.75
2023-02-28T06:17:23.840Z,99748.41
2023-02-28T06:18:26.665Z,99755.84
2023-02-28T06:19:29.838Z,99755.78
2023-02-28T06:20:31.873Z,99756.50
2023-02-28T06:21:35.293Z,99765.88
2023-02-28T06:22:37.136Z,99762.41
2023-02-28T06:23:40.075Z,99769.03
2023-02-28T06:24:42.316Z,99767.09
2023-02-28T06:25:47.099Z,99762.56
2023-02-28T06:26:50.355Z,99765.00
2023-02-28T06:27:53.609Z,99760.53
2023-02-28T06:28:55.527Z,99768.00
2023-02-28T06:29:59.068Z,99767.78
2023-02-28T06:31:07.229Z,99765.75
2023-02-28T06:32:10.377Z,99762.25
2023-02-28T06:33:12.159Z,99768.94
2023-02-28T06:34:15.935Z,99761.09
2023-02-28T06:35:18.817Z,99767.75
2023-02-28T06:36:21.534Z,99769.31
2023-02-28T06:37:27.101Z,99764.06
2023-02-28T06:38:29.909Z,99769.88
2023-02-28T06:39:32.252Z,99772.22
2023-02-28T06:40:37.084Z,99766.88
2023-02-28T06:41:53.771Z,99769.28
2023-02-28T06:42:58.607Z,99767.47
2023-02-28T06:44:01.439Z,99765.63
2023-02-28T06:45:10.066Z,99773.22
2023-02-28T06:46:15.991Z,99767.13
2023-02-28T06:47:18.835Z,99766.16
2023-02-28T06:48:21.560Z,99764.38
2023-02-28T06:49:23.327Z,99763.44
2023-02-28T06:50:26.318Z,99762.44
2023-02-28T06:51:28.296Z,99759.69
2023-02-28T06:52:31.560Z,99767.19
2023-02-28T06:53:34.235Z,99766.00
2023-02-28T06:54:38.406Z,99773.41
2023-02-28T06:55:40.327Z,99764.66
2023-02-28T06:56:43.731Z,99768.78
2023-02-28T06:57:45.517Z,99769.47
2023-02-28T06:58:50.330Z,99768.38
2023-02-28T06:59:52.159Z,99773.31
2023-02-28T07:00:55.279Z,99776.63
2023-02-28T07:01:58.162Z,99770.44
2023-02-28T07:03:00.021Z,99777.31
2023-02-28T07:04:03.279Z,99773.81
2023-02-28T07:05:05.789Z,99782.22
2023-02-28T07:06:08.871Z,99780.38
2023-02-28T07:07:11.705Z,99774.06
2023-02-28T07:08:14.109Z,99781.66
2023-02-28T07:09:17.371Z,99783.09
2023-02-28T07:10:20.444Z,99775.13
2023-02-28T07:11:24.255Z,99774.84
2023-02-28T07:12:26.327Z,99775.34
2023-02-28T07:13:29.102Z,99778.63
2023-02-28T07:14:33.193Z,99783.69
2023-02-28T07:15:35.493Z,99774.28
2023-02-28T07:16:39.127Z,99785.50
2023-02-28T07:17:41.065Z,99782.03
2023-02-28T07:18:43.963Z,99781.97
2023-02-28T07:19:45.796Z,99781.88
2023-02-28T07:20:48.507Z,99782.56
2023-02-28T07:21:51.348Z,99779.03
2023-02-28T07:22:57.397Z,99783.16
2023-02-28T07:24:00.113Z,99790.66
2023-02-28T07:25:02.142Z,99784.44
2023-02-28T07:26:05.044Z,99782.66
2023-02-28T07:27:07.843Z,99778.25
2023-02-28T07:28:09.862Z,99780.88
2023-02-28T07:29:12.800Z,99780.13
2023-02-28T07:30:16.483Z,99778.59
2023-02-28T07:31:19.640Z,99781.38
2023-02-28T07:32:22.809Z,99774.00
2023-02-28T07:33:26.340Z,99776.03
2023-02-28T07:34:29.152Z,99777.28
2023-02-28T07:35:31.152Z,99776.72
2023-02-28T07:36:33.915Z,99789.84
2023-02-28T07:37:37.533Z,99780.72
2023-02-28T07:38:40.321Z,99790.41
2023-02-28T07:39:43.151Z,99788.91
2023-02-28T07:40:45.997Z,99792.53
2023-02-28T07:41:47.779Z,99793.53
2023-02-28T07:42:50.481Z,99786.72
2023-02-28T07:43:55.764Z,99789.25
2023-02-28T07:44:57.602Z,99782.22
2023-02-28T07:46:05.530Z,99782.91
2023-02-28T07:47:09.902Z,99781.84
2023-02-28T07:48:11.685Z,99784.97
2023-02-28T07:49:14.591Z,99785.44
2023-02-28T07:50:18.439Z,99775.75
2023-02-28T07:51:21.816Z,99776.53
2023-02-28T07:52:25.234Z,99781.59
2023-02-28T07:53:27.417Z,99781.53
2023-02-28T07:54:30.162Z,99772.91
2023-02-28T07:55:31.899Z,99776.38
2023-02-28T07:56:34.706Z,99775.53
2023-02-28T07:57:36.614Z,99778.97
2023-02-28T07:58:42.108Z,99775.56
2023-02-28T07:59:46.060Z,99770.41
2023-02-28T08:00:48.934Z,99781.56
2023-02-28T08:01:52.116Z,99780.72
2023-02-28T08:03:14.305Z,99774.78
2023-02-28T08:04:17.136Z,99768.72
2023-02-28T08:05:22.394Z,99780.84
2023-02-28T08:06:27.203Z,99771.50
2023-02-28T08:07:29.185Z,99782.72
2023-02-28T08:08:32.256Z,99786.34
2023-02-28T08:09:35.151Z,99789.88
2023-02-28T08:10:38.874Z,99784.06
2023-02-28T08:11:41.639Z,99785.03
2023-02-28T08:12:44.818Z,99791.16
2023-02-28T08:13:46.882Z,99790.25
2023-02-28T08:14:49.658Z,99784.22
2023-02-28T08:15:51.506Z,99785.03
2023-02-28T08:16:55.592Z,99778.09
2023-02-28T08:17:58.656Z,99778.84
2023-02-28T08:19:01.877Z,99785.53
2023-02-28T08:20:05.043Z,99786.31
2023-02-28T08:21:08.181Z,99781.94
2023-02-28T08:22:11.360Z,99787.88
2023-02-28T08:23:13.122Z,99777.44
2023-02-28T08:24:15.873Z,99779.94
2023-02-28T08:25:19.575Z,99784.13
2023-02-28T08:26:22.786Z,99778.06
2023-02-28T08:27:24.596Z,99779.69
2023-02-28T08:28:27.757Z,99782.09
2023-02-28T08:29:31.143Z,99781.13
2023-02-28T08:30:32.958Z,99783.63
2023-02-28T08:31:36.590Z,99782.66
2023-02-28T08:32:40.578Z,99780.84
2023-02-28T08:33:45.429Z,99783.34
2023-02-28T08:34:48.337Z,99779.03
2023-02-28T08:35:50.224Z,99781.69
2023-02-28T08:36:53.825Z,99784.31
2023-02-28T08:37:55.743Z,99786.97
2023-02-28T08:38:58.894Z,99786.28
2023-02-28T08:40:00.707Z,99783.00
2023-02-28T08:41:06.882Z,99778.75
2023-02-28T08:42:08.852Z,99781.53
2023-02-28T08:43:11.581Z,99783.41
2023-02-28T08:44:14.823Z,99782.69
2023-02-28T08:45:16.729Z,99783.56
2023-02-28T08:46:19.657Z,99791.47
2023-02-28T08:47:22.571Z,99788.19
2023-02-28T08:48:26.971Z,99789.16
2023-02-28T08:49:29.885Z,99782.41
2023-02-28T08:50:32.119Z,99794.44
2023-02-28T08:51:34.939Z,99796.13
2023-02-28T08:52:36.859Z,99781.44
2023-02-28T08:53:41.626Z,99788.19
2023-02-28T08:54:43.376Z,99789.75
2023-02-28T08:55:46.115Z,99787.94
2023-02-28T08:56:48.985Z,99784.47
2023-02-28T08:57:50.869Z,99785.16
2023-02-28T08:58:56.173Z,99789.34
2023-02-28T08:59:58.234Z,99784.94
2023-02-28T09:01:01.025Z,99792.47
2023-02-28T09:02:04.000Z,99796.56
2023-02-28T09:03:05.841Z,99793.91
2023-02-28T09:04:11.654Z,99788.66
2023-02-28T09:05:13.411Z,99786.78
2023-02-28T09:06:18.256Z,99795.94
2023-02-28T09:07:21.012Z,99798.22
2023-02-28T09:08:24.225Z,99792.75
2023-02-28T09:09:27.545Z,99793.34
2023-02-28T09:10:29.338Z,99791.63
2023-02-28T09:11:32.399Z,99787.22
2023-02-28T09:12:36.935Z,99789.81
2023-02-28T09:13:39.573Z,99789.88
2023-02-28T09:14:42.292Z,99791.66
2023-02-28T09:15:46.123Z,99791.63
2023-02-28T09:16:48.944Z,99787.28
2023-02-28T09:17:50.782Z,99791.47
2023-02-28T09:18:54.078Z,99796.69
2023-02-28T09:19:58.175Z,99794.97
2023-02-28T09:21:00.931Z,99796.69
2023-02-28T09:22:03.933Z,99791.53
2023-02-28T09:23:06.671Z,99786.38
2023-02-28T09:24:08.964Z,99789.81
2023-02-28T09:25:11.821Z,99794.13
2023-02-28T09:26:15.280Z,99788.94
2023-02-28T09:27:18.040Z,99795.84
2023-02-28T09:28:20.901Z,99792.25
2023-02-28T09:29:23.672Z,99791.19
2023-02-28T09:30:25.717Z,99791.84
2023-02-28T09:31:30.037Z,99788.09
2023-02-28T09:32:32.820Z,99796.47
2023-02-28T09:33:35.250Z,99787.66
2023-02-28T09:34:38.348Z,99791.84
2023-02-28T09:35:41.924Z,99790.81
2023-02-28T09:36:46.446Z,99797.44
2023-02-28T09:37:49.126Z,99796.31
2023-02-28T09:38:52.376Z,99790.94
2023-02-28T09:39:55.123Z,99791.75
2023-02-28T09:40:58.576Z,99792.50
2023-02-28T09:42:01.450Z,99795.19
2023-02-28T09:43:03.332Z,99797.72
2023-02-28T09:44:09.141Z,99796.78
2023-02-28T09:45:20.624Z,99796.78
2023-02-28T09:46:29.599Z,99805.47
2023-02-28T09:47:35.112Z,99793.47
2023-02-28T09:48:41.228Z,99794.56
2023-02-28T09:49:47.180Z,99794.75
2023-02-28T09:50:53.385Z,99795.81
2023-02-28T09:51:59.801Z,99795.19
2023-02-28T09:53:05.876Z,99798.00
2023-02-28T09:54:11.659Z,99800.66
2023-02-28T09:55:23.270Z,99799.91
2023-02-28T09:56:29.634Z,99798.22
2023-02-28T09:57:35.569Z,99801.66
2023-02-28T09:58:43.051Z,99802.56
2023-02-28T09:59:56.132Z,99800.72
2023-02-28T10:01:03.468Z,99802.41
2023-02-28T10:02:17.031Z,99802.47
2023-02-28T10:03:37.892Z,99796.69
2023-02-28T10:04:45.865Z,99798.53
2023-02-28T10:05:54.844Z,99795.09
2023-02-28T10:06:58.764Z,99795.81
2023-02-28T10:08:09.641Z,99804.13
2023-02-28T10:09:15.132Z,99802.19
2023-02-28T10:10:24.245Z,99799.38
2023-02-28T10:11:28.150Z,99807.63
2023-02-28T10:12:31.125Z,99803.06
2023-02-28T10:13:36.811Z,99801.69
2023-02-28T10:14:41.012Z,99803.72
2023-02-28T10:15:43.883Z,99790.13
2023-02-28T10:16:52.764Z,99802.34
2023-02-28T10:18:08.362Z,99796.44
2023-02-28T10:19:16.016Z,99789.94
2023-02-28T10:20:21.116Z,99789.94
2023-02-28T10:21:28.335Z,99802.50
2023-02-28T10:22:33.940Z,99794.22
2023-02-28T10:23:37.909Z,99788.38
2023-02-28T10:24:42.276Z,99797.91
2023-02-28T10:25:49.008Z,99800.47
2023-02-28T10:26:54.343Z,99790.53
2023-02-28T10:28:05.598Z,99785.75
2023-02-28T10:29:10.272Z,99780.94
2023-02-28T10:30:14.714Z,99779.53
2023-02-28T10:31:21.467Z,99782.63
2023-02-28T10:32:25.565Z,99776.19
2023-02-28T10:33:31.812Z,99772.47
2023-02-28T10:34:34.693Z,99770.56
2023-02-28T10:35:37.570Z,99775.47
2023-02-28T10:36:43.915Z,99758.97
2023-02-28T10:37:48.085Z,99764.81
2023-02-28T10:38:52.156Z,99757.97
2023-02-28T10:39:54.471Z,99764.06
2023-02-28T10:41:06.726Z,99767.91
2023-02-28T10:42:22.099Z,99758.41
2023-02-28T10:43:25.540Z,99766.59
2023-02-28T10:44:27.337Z,99769.38
2023-02-28T10:45:31.091Z,99763.59
2023-02-28T10:46:35.130Z,99763.22
2023-02-28T10:47:43.620Z,99765.31
2023-02-28T10:48:49.370Z,99769.16
2023-02-28T10:49:54.009Z,99763.66
2023-02-28T10:50:58.765Z,99768.47
2023-02-28T10:52:03.439Z,99767.25
2023-02-28T10:53:15.675Z,99756.44
2023-02-28T10:54:21.269Z,99758.56
2023-02-28T10:55:25.954Z,99765.88
2023-02-28T10:56:29.364Z,99761.16
2023-02-28T10:57:31.877Z,99758.75
2023-02-28T10:58:48.965Z,99753.91
2023-02-28T10:59:53.204Z,99759.31
2023-02-28T11:00:55.985Z,99760.28
2023-02-28T11:01:59.216Z,99760.34
2023-02-28T11:03:01.486Z,99753.50
2023-02-28T11:04:05.484Z,99756.13
2023-02-28T11:05:27.937Z,99755.09
2023-02-28T11:06:32.006Z,99756.91
2023-02-28T11:07:50.621Z,99758.59
2023-02-28T11:08:57.486Z,99756.66
2023-02-28T11:09:59.624Z,99747.91
2023-02-28T11:11:06.086Z,99748.56
2023-02-28T11:12:22.679Z,99742.09
2023-02-28T11:13:29.482Z,99741.00
2023-02-28T11:14:33.596Z,99739.09
2023-02-28T11:15:36.268Z,99734.59
2023-02-28T11:16:40.115Z,99737.88
2023-02-28T11:17:44.293Z,99735.00
2023-02-28T11:18:49.504Z,99746.19
2023-02-28T11:19:54.601Z,99734.19
2023-02-28T11:20:58.493Z,99746.09
2023-02-28T11:22:02.786Z,99743.44
2023-02-28T11:23:06.364Z,99744.16
2023-02-28T11:24:20.365Z,99737.81
2023-02-28T11:25:24.508Z,99734.91
2023-02-28T11:26:41.984Z,99732.25
2023-02-28T11:27:47.944Z,99738.19
2023-02-28T11:29:05.239Z,99734.44
2023-02-28T11:30:25.515Z,99732.34
2023-02-28T11:31:30.832Z,99723.53
2023-02-28T11:32:32.941Z,99729.53
2023-02-28T11:33:43.485Z,99723.88
2023-02-28T11:34:46.405Z,99724.28
2023-02-28T11:35:51.184Z,99721.97
2023-02-28T11:36:55.419Z,99729.28
2023-02-28T11:37:59.660Z,99721.84
2023-02-28T11:39:11.084Z,99713.53
2023-02-28T11:40:14.846Z,99722.47
2023-02-28T11:41:28.381Z,99712.31
2023-02-28T11:42:48.107Z,99724.50
2023-02-28T11:44:01.939Z,99716.91
2023-02-28T11:45:13.839Z,99712.50
2023-02-28T11:46:24.533Z,99710.63
2023-02-28T11:47:35.351Z,99703.63
2023-02-28T11:48:44.756Z,99698.53
2023-02-28T11:49:52.734Z,99708.09
2023-02-28T11:51:02.622Z,99704.94
2023-02-28T11:52:09.675Z,99697.38
2023-02-28T11:53:20.779Z,99702.50
2023-02-28T11:54:31.971Z,99703.19
2023-02-28T11:55:38.183Z,99694.31
2023-02-28T11:56:43.753Z,99694.00
2023-02-28T11:57:57.482Z,99699.69
2023-02-28T11:59:11.132Z,99699.38
2023-02-28T12:00:26.492Z,99697.34
2023-02-28T12:01:37.467Z,99691.69
2023-02-28T12:05:13.470Z,99696.34
2023-02-28T12:06:23.522Z,99696.00
2023-02-28T12:07:33.930Z,99694.59
2023-02-28T12:09:03.326Z,99688.84
2023-02-28T12:10:21.183Z,99690.91
2023-02-28T12:11:32.676Z,99684.78
2023-02-28T12:12:41.954Z,99690.91
2023-02-28T12:13:51.280Z,99685.69
2023-02-28T12:15:26.784Z,99685.47
2023-02-28T12:16:45.765Z,99690.91
2023-02-28T12:17:56.704Z,99682.69
2023-02-28T12:19:09.175Z,99689.31
2023-02-28T12:20:20.391Z,99686.56
2023-02-28T12:21:31.997Z,99684.97
2023-02-28T12:22:39.645Z,99688.56
2023-02-28T12:23:59.076Z,99688.63
2023-02-28T12:25:27.051Z,99685.97
2023-02-28T12:26:36.062Z,99683.69
2023-02-28T12:27:41.136Z,99684.97
2023-02-28T12:28:44.360Z,99687.13
2023-02-28T12:29:51.112Z,99689.44
2023-02-28T12:30:59.126Z,99690.22
2023-02-28T12:32:06.240Z,99687.53
2023-02-28T12:33:11.713Z,99682.13
2023-02-28T12:34:17.491Z,99686.06
2023-02-28T12:35:24.430Z,99679.91
2023-02-28T12:36:29.519Z,99686.91
2023-02-28T12:37:36.012Z,99679.53
2023-02-28T12:38:42.266Z,99678.00
2023-02-28T12:39:50.553Z,99674.56
2023-02-28T12:40:58.863Z,99678.91
2023-02-28T12:42:04.113Z,99683.34
2023-02-28T12:43:09.855Z,99686.84
2023-02-28T12:44:15.662Z,99675.41
2023-02-28T12:45:21.195Z,99676.75
2023-02-28T12:46:26.840Z,99679.13
2023-02-28T12:47:29.708Z,99677.97
2023-02-28T12:48:35.130Z,99671.09
2023-02-28T12:49:41.599Z,99669.53
2023-02-28T12:50:44.082Z,99667.38
2023-02-28T12:51:47.965Z,99664.97